Time;durP1;ratioP1;P1;durP2;ratioP2;P2;SDS_P1;SDS_P2;PMS_P1;PMS_P2;Temp;Humidity;BMP_temperature;BMP_pressure;BME280_temperature;BME280_humidity;BME280_pressure;Samples;Min_cycle;Max_cycle;Signal;HPM_P1;HPM_P2
2022/04/09 00:00:07;;;;;;;5.33;1.13;;;4.70;99.90;;;;;;5086205;28;20409;-77
2022/04/09 00:02:33;;;;;;;5.75;0.90;;;4.70;99.90;;;;;;5086620;28;20411;-77
2022/04/09 00:04:59;;;;;;;7.07;0.80;;;4.70;99.90;;;;;;5069337;28;20420;-76
2022/04/09 00:07:24;;;;;;;9.37;1.10;;;4.70;99.90;;;;;;5087798;28;20409;-77
2022/04/09 00:09:50;;;;;;;8.68;1.23;;;4.80;99.90;;;;;;5086399;28;20402;-77
2022/04/09 00:12:16;;;;;;;8.00;1.20;;;4.70;99.90;;;;;;5086084;28;20402;-76
2022/04/09 00:14:41;;;;;;;8.18;1.40;;;4.80;99.90;;;;;;5086324;28;20490;-76
2022/04/09 00:17:09;;;;;;;10.70;1.45;;;4.70;99.90;;;;;;5086256;28;20542;-76
2022/04/09 00:19:36;;;;;;;10.27;1.58;;;4.70;99.90;;;;;;5087683;28;20424;-76
2022/04/09 00:22:02;;;;;;;10.60;1.55;;;4.70;99.90;;;;;;5086012;28;20919;-76
2022/04/09 00:24:28;;;;;;;8.40;1.45;;;4.70;99.90;;;;;;5087197;28;20435;-77
2022/04/09 00:26:53;;;;;;;8.80;1.20;;;4.70;99.90;;;;;;5087589;28;20401;-77
2022/04/09 00:29:19;;;;;;;12.53;1.63;;;4.70;99.90;;;;;;5087496;28;20493;-76
2022/04/09 00:31:44;;;;;;;10.18;1.80;;;4.70;99.90;;;;;;5087359;28;20397;-77
2022/04/09 00:34:10;;;;;;;10.97;1.63;;;4.70;99.90;;;;;;5087113;28;20491;-77
2022/04/09 00:36:35;;;;;;;11.27;2.13;;;4.70;99.90;;;;;;5090213;28;20401;-77
2022/04/09 00:39:02;;;;;;;9.43;1.80;;;4.80;99.90;;;;;;5090777;28;20398;-77
2022/04/09 00:41:27;;;;;;;14.50;1.77;;;4.80;99.90;;;;;;5091129;28;20487;-77
2022/04/09 00:43:53;;;;;;;9.10;1.47;;;4.90;99.90;;;;;;5089683;28;20875;-77
2022/04/09 00:46:19;;;;;;;8.73;1.00;;;4.90;99.90;;;;;;5090150;28;20744;-77
2022/04/09 00:48:44;;;;;;;7.22;0.93;;;4.90;99.90;;;;;;5091034;28;20409;-77
2022/04/09 00:51:10;;;;;;;6.50;1.07;;;4.90;99.90;;;;;;5089257;28;20413;-76
2022/04/09 00:53:41;;;;;;;8.38;1.17;;;4.90;99.90;;;;;;5089377;28;20402;-76
2022/04/09 00:56:13;;;;;;;4.95;0.90;;;4.90;99.90;;;;;;5072592;28;20935;-76
2022/04/09 00:58:43;;;;;;;6.07;0.90;;;4.80;99.90;;;;;;5072404;28;20410;-76
2022/04/09 01:01:10;;;;;;;7.18;1.10;;;4.80;99.90;;;;;;5090085;28;20814;-76
2022/04/09 01:03:37;;;;;;;9.05;1.08;;;4.80;99.90;;;;;;5091020;28;20406;-77
2022/04/09 01:06:06;;;;;;;8.45;0.95;;;4.70;99.90;;;;;;5089207;28;20417;-77
2022/04/09 01:08:31;;;;;;;5.70;0.93;;;4.70;99.90;;;;;;5092555;28;20436;-77
2022/04/09 01:10:57;;;;;;;9.23;1.30;;;4.70;99.90;;;;;;5090132;28;20832;-77
2022/04/09 01:13:24;;;;;;;9.60;1.60;;;4.70;99.90;;;;;;5089780;28;20402;-77
2022/04/09 01:15:50;;;;;;;9.73;1.10;;;4.70;99.90;;;;;;5089362;28;20900;-77
2022/04/09 01:18:17;;;;;;;8.15;1.40;;;4.80;99.90;;;;;;5089385;28;20413;-77
2022/04/09 01:20:43;;;;;;;6.93;1.15;;;4.70;99.90;;;;;;5088516;28;21111;-77
2022/04/09 01:23:08;;;;;;;9.88;1.30;;;4.80;99.90;;;;;;5087639;28;20506;-77
2022/04/09 01:25:34;;;;;;;9.87;1.20;;;4.80;99.90;;;;;;5080635;28;20411;-77
2022/04/09 01:28:01;;;;;;;8.80;1.40;;;4.80;99.90;;;;;;5069163;28;20400;-76
2022/04/09 01:30:26;;;;;;;9.25;1.48;;;4.80;99.90;;;;;;5067885;28;20774;-77
2022/04/09 01:32:52;;;;;;;9.93;1.50;;;4.80;99.90;;;;;;5068999;28;20392;-76
2022/04/09 01:35:18;;;;;;;7.07;1.30;;;4.90;99.90;;;;;;5067864;28;21027;-77
2022/04/09 01:37:43;;;;;;;8.93;1.20;;;4.90;99.90;;;;;;5068368;28;20411;-77
2022/04/09 01:40:10;;;;;;;7.18;1.33;;;4.90;99.90;;;;;;5069600;28;20395;-76
2022/04/09 01:42:36;;;;;;;6.73;0.80;;;4.90;99.90;;;;;;5058866;28;20414;-77
2022/04/09 01:45:06;;;;;;;6.60;1.17;;;4.90;99.90;;;;;;5088633;28;20470;-76
2022/04/09 01:47:32;;;;;;;6.30;1.25;;;4.90;99.90;;;;;;5087512;28;20904;-76
2022/04/09 01:49:58;;;;;;;5.82;0.98;;;4.90;99.90;;;;;;5088461;28;20439;-77
2022/04/09 01:52:23;;;;;;;10.33;1.30;;;5.00;99.90;;;;;;5089800;28;20406;-77
2022/04/09 01:54:49;;;;;;;7.80;0.95;;;5.00;99.90;;;;;;5089743;28;20440;-77
2022/04/09 01:57:15;;;;;;;6.35;0.90;;;5.00;99.90;;;;;;5089679;28;20401;-77
2022/04/09 01:59:43;;;;;;;8.93;1.15;;;5.00;99.90;;;;;;5089649;28;20398;-77
2022/04/09 02:02:09;;;;;;;6.10;1.08;;;4.90;99.90;;;;;;5088207;28;20830;-77
2022/04/09 02:04:34;;;;;;;6.03;1.10;;;4.90;99.90;;;;;;5089738;28;20398;-76
2022/04/09 02:07:00;;;;;;;7.37;1.10;;;4.80;99.90;;;;;;5089439;28;20407;-77
2022/04/09 02:09:26;;;;;;;9.80;1.90;;;4.70;99.90;;;;;;5089371;28;20402;-77
2022/04/09 02:11:52;;;;;;;7.50;1.00;;;4.70;99.90;;;;;;5088297;28;20402;-77
2022/04/09 02:14:17;;;;;;;7.73;1.30;;;4.70;99.90;;;;;;5071155;28;20955;-77
2022/04/09 02:16:43;;;;;;;8.38;1.33;;;4.60;99.90;;;;;;5088810;28;20531;-77
2022/04/09 02:19:10;;;;;;;6.28;1.17;;;4.50;99.90;;;;;;5088113;28;20424;-77
2022/04/09 02:21:36;;;;;;;7.90;1.20;;;4.50;99.90;;;;;;5089181;28;20421;-77
2022/04/09 02:24:02;;;;;;;7.57;1.23;;;4.40;99.90;;;;;;5089399;28;20413;-76
2022/04/09 02:26:27;;;;;;;7.40;1.43;;;4.30;99.90;;;;;;5088434;28;20417;-77
2022/04/09 02:28:53;;;;;;;9.25;1.50;;;4.30;99.90;;;;;;5088741;28;20405;-77
2022/04/09 02:31:20;;;;;;;5.57;1.10;;;4.30;99.90;;;;;;5088991;28;20896;-77
2022/04/09 02:33:46;;;;;;;11.38;1.65;;;4.30;99.90;;;;;;5088754;28;20918;-77
2022/04/09 02:36:12;;;;;;;6.55;1.17;;;4.30;99.90;;;;;;5087713;28;20468;-77
2022/04/09 02:38:38;;;;;;;7.25;1.00;;;4.20;99.90;;;;;;5089234;28;20406;-77
2022/04/09 02:41:04;;;;;;;6.22;0.90;;;4.20;99.90;;;;;;5070234;28;20514;-77
2022/04/09 02:43:30;;;;;;;6.20;0.95;;;4.20;99.90;;;;;;5088922;28;20390;-77
2022/04/09 02:45:56;;;;;;;7.47;1.20;;;4.20;99.90;;;;;;5088039;28;20402;-77
2022/04/09 02:48:23;;;;;;;7.77;1.10;;;4.10;99.90;;;;;;5089204;28;20943;-77
2022/04/09 02:50:48;;;;;;;7.35;1.08;;;4.10;99.90;;;;;;5088573;28;20475;-77
2022/04/09 02:53:14;;;;;;;6.78;1.05;;;4.10;99.90;;;;;;5088900;28;20398;-77
2022/04/09 02:55:40;;;;;;;6.75;0.90;;;4.20;99.90;;;;;;5088762;28;20398;-77
2022/04/09 02:58:06;;;;;;;8.30;0.90;;;4.20;99.90;;;;;;5087848;28;20398;-77
2022/04/09 03:00:32;;;;;;;8.43;1.37;;;4.10;99.90;;;;;;5088688;28;20402;-77
2022/04/09 03:02:57;;;;;;;13.65;1.38;;;4.10;99.90;;;;;;5088653;28;20469;-77
2022/04/09 03:05:23;;;;;;;5.68;1.40;;;4.10;99.90;;;;;;5088707;28;20896;-77
2022/04/09 03:07:49;;;;;;;7.37;1.10;;;4.10;99.90;;;;;;5087166;28;20440;-77
2022/04/09 03:10:14;;;;;;;9.40;1.42;;;4.10;99.90;;;;;;5071010;28;20847;-78
2022/04/09 03:12:48;;;;;;;11.50;1.50;;;4.10;99.90;;;;;;5087819;28;20425;-77
2022/04/09 03:15:14;;;;;;;10.77;1.90;;;4.10;99.90;;;;;;5088221;28;20398;-77
2022/04/09 03:17:40;;;;;;;10.57;1.53;;;4.10;99.90;;;;;;5087068;28;20402;-77
2022/04/09 03:20:07;;;;;;;11.27;1.75;;;4.10;99.90;;;;;;5088342;28;21069;-77
2022/04/09 03:22:32;;;;;;;9.52;1.50;;;4.00;99.90;;;;;;5087175;28;20438;-77
2022/04/09 03:24:59;;;;;;;10.57;1.73;;;4.10;99.90;;;;;;5086901;28;20397;-77
2022/04/09 03:27:26;;;;;;;8.23;1.50;;;4.10;99.90;;;;;;5086792;28;20406;-77
2022/04/09 03:29:52;;;;;;;9.77;1.80;;;4.20;99.90;;;;;;5086890;28;20413;-77
2022/04/09 03:32:18;;;;;;;9.93;1.75;;;4.30;99.90;;;;;;5088424;28;20421;-76
2022/04/09 03:34:44;;;;;;;11.07;1.90;;;4.30;99.90;;;;;;5086776;28;20527;-76
2022/04/09 03:37:10;;;;;;;8.85;1.80;;;4.30;99.90;;;;;;5088176;28;20570;-77
2022/04/09 03:39:41;;;;;;;14.43;2.33;;;4.20;99.90;;;;;;5086733;28;20441;-77
2022/04/09 03:42:07;;;;;;;11.48;2.25;;;4.20;99.90;;;;;;5086503;28;20434;-77
2022/04/09 03:44:33;;;;;;;11.13;2.17;;;4.10;99.90;;;;;;5088478;28;20470;-77
2022/04/09 03:46:59;;;;;;;9.63;2.07;;;4.10;99.90;;;;;;5088044;28;20503;-77
2022/04/09 03:49:25;;;;;;;8.43;1.80;;;4.10;99.90;;;;;;5087822;28;20914;-77
2022/04/09 03:51:51;;;;;;;15.93;2.80;;;4.10;99.90;;;;;;5087696;28;20457;-77
2022/04/09 03:54:16;;;;;;;12.10;1.98;;;4.00;99.90;;;;;;5088369;28;20401;-78
2022/04/09 03:56:43;;;;;;;15.23;2.10;;;4.00;99.90;;;;;;5086653;28;20911;-77
2022/04/09 03:59:09;;;;;;;10.43;1.63;;;4.00;99.90;;;;;;5086324;28;20410;-77
2022/04/09 04:01:36;;;;;;;12.43;1.90;;;3.90;99.90;;;;;;5087910;28;20460;-77
2022/04/09 04:04:02;;;;;;;7.30;1.52;;;4.00;99.90;;;;;;5087982;28;20413;-77
2022/04/09 04:06:28;;;;;;;12.13;2.43;;;4.00;99.90;;;;;;5088104;28;21337;-77
2022/04/09 04:08:55;;;;;;;9.87;1.83;;;4.00;99.90;;;;;;5086585;28;20433;-77
2022/04/09 04:11:22;;;;;;;7.97;1.60;;;3.90;99.90;;;;;;5091190;28;20485;-77
2022/04/09 04:13:48;;;;;;;8.93;1.60;;;3.90;99.90;;;;;;5073668;28;20493;-76
2022/04/09 04:16:15;;;;;;;8.85;1.58;;;3.90;99.90;;;;;;5090768;28;20427;-76
2022/04/09 04:18:41;;;;;;;12.60;1.85;;;3.90;99.90;;;;;;5091199;28;20417;-77
2022/04/09 04:21:07;;;;;;;7.47;1.13;;;3.80;99.90;;;;;;5091710;28;20437;-76
2022/04/09 04:23:33;;;;;;;8.77;1.40;;;3.90;99.90;;;;;;5091671;28;20964;-76
2022/04/09 04:25:59;;;;;;;9.40;1.30;;;3.90;99.90;;;;;;5090419;28;20409;-76
2022/04/09 04:28:24;;;;;;;9.18;1.23;;;3.90;99.90;;;;;;5091904;28;20450;-76
2022/04/09 04:30:50;;;;;;;8.77;1.58;;;4.00;99.90;;;;;;5091070;28;20479;-76
2022/04/09 04:33:16;;;;;;;11.70;1.13;;;4.00;99.90;;;;;;5090416;28;20808;-77
2022/04/09 04:35:42;;;;;;;11.23;1.35;;;4.00;99.90;;;;;;5090435;28;20413;-77
2022/04/09 04:38:07;;;;;;;10.00;1.40;;;4.10;99.90;;;;;;5090361;28;20402;-76
2022/04/09 04:40:33;;;;;;;6.77;1.30;;;4.10;99.90;;;;;;5089763;28;20413;-76
2022/04/09 04:42:58;;;;;;;7.68;1.38;;;4.10;99.90;;;;;;5091062;28;20406;-76
2022/04/09 04:45:24;;;;;;;8.13;1.33;;;4.10;99.90;;;;;;5090305;28;20399;-76
2022/04/09 04:47:50;;;;;;;6.80;1.30;;;4.10;99.90;;;;;;5089922;28;20417;-76
2022/04/09 04:50:17;;;;;;;11.48;1.70;;;4.10;99.90;;;;;;5091197;28;20398;-76
2022/04/09 04:52:43;;;;;;;8.38;1.40;;;4.00;99.90;;;;;;5089727;28;21176;-76
2022/04/09 04:55:09;;;;;;;9.20;1.45;;;3.90;99.90;;;;;;5089517;28;20915;-76
2022/04/09 04:57:46;;;;;;;9.00;1.73;;;3.90;99.90;;;;;;5090150;28;20402;-76
2022/04/09 05:00:15;;;;;;;9.47;1.57;;;3.90;99.90;;;;;;5090957;28;20398;-76
2022/04/09 05:02:40;;;;;;;9.95;1.58;;;3.90;99.90;;;;;;5089652;28;20429;-76
2022/04/09 05:05:07;;;;;;;9.60;1.38;;;3.90;99.90;;;;;;5089664;28;20406;-76
2022/04/09 05:07:39;;;;;;;10.60;1.45;;;3.90;99.90;;;;;;5089571;28;20409;-76
2022/04/09 05:10:07;;;;;;;10.83;2.07;;;3.90;99.90;;;;;;5091007;28;20439;-76
2022/04/09 05:12:34;;;;;;;12.68;1.50;;;4.00;99.90;;;;;;5089618;28;20406;-76
2022/04/09 05:14:59;;;;;;;10.45;1.80;;;4.00;99.90;;;;;;5089189;28;20924;-77
2022/04/09 05:17:25;;;;;;;8.57;1.47;;;4.00;99.90;;;;;;5089513;28;20441;-76
2022/04/09 05:19:51;;;;;;;11.33;1.40;;;4.00;99.90;;;;;;5090103;28;20410;-76
2022/04/09 05:22:16;;;;;;;10.93;2.15;;;4.10;99.90;;;;;;5089561;28;20465;-76
2022/04/09 05:24:42;;;;;;;10.70;1.70;;;4.20;99.90;;;;;;5090633;28;20771;-76
2022/04/09 05:27:07;;;;;;;12.23;1.65;;;4.20;99.90;;;;;;5089825;28;20409;-76
2022/04/09 05:29:33;;;;;;;10.33;1.53;;;4.20;99.90;;;;;;5090025;28;20398;-78
2022/04/09 05:31:59;;;;;;;10.50;1.70;;;4.20;99.90;;;;;;5088343;28;20414;-76
2022/04/09 05:34:25;;;;;;;10.52;1.50;;;4.20;99.90;;;;;;5089897;28;20394;-76
2022/04/09 05:36:50;;;;;;;10.65;1.50;;;4.20;99.90;;;;;;5090160;28;20414;-76
2022/04/09 05:39:17;;;;;;;11.93;2.10;;;4.20;99.90;;;;;;5090147;28;20394;-76
2022/04/09 05:41:43;;;;;;;8.65;1.60;;;4.20;99.90;;;;;;5089153;28;20430;-76
2022/04/09 05:44:09;;;;;;;9.93;1.80;;;4.20;99.90;;;;;;5088583;28;20422;-76
2022/04/09 05:46:35;;;;;;;10.50;1.70;;;4.20;99.90;;;;;;5089251;28;20489;-76
2022/04/09 05:49:02;;;;;;;10.07;1.50;;;4.20;99.90;;;;;;5090205;28;20493;-76
2022/04/09 05:51:28;;;;;;;12.75;1.80;;;4.30;99.90;;;;;;5088996;28;20469;-76
2022/04/09 05:53:55;;;;;;;9.02;1.73;;;4.30;99.90;;;;;;5088537;28;20849;-76
2022/04/09 05:56:22;;;;;;;10.25;1.60;;;4.30;99.90;;;;;;5089197;28;20834;-77
2022/04/09 05:58:47;;;;;;;10.27;1.60;;;4.30;99.90;;;;;;5089809;28;21135;-77
2022/04/09 06:01:13;;;;;;;8.43;1.60;;;4.40;99.90;;;;;;5089644;28;20525;-76
2022/04/09 06:03:39;;;;;;;9.23;1.50;;;4.40;99.90;;;;;;5089417;28;20489;-77
2022/04/09 06:06:05;;;;;;;12.00;1.63;;;4.40;99.90;;;;;;5089893;28;20401;-76
2022/04/09 06:08:32;;;;;;;12.75;1.73;;;4.40;99.90;;;;;;5088650;28;20410;-77
2022/04/09 06:10:58;;;;;;;8.80;1.73;;;4.40;99.90;;;;;;5089462;28;20437;-76
2022/04/09 06:13:24;;;;;;;8.87;1.27;;;4.50;99.90;;;;;;5089264;28;20425;-76
2022/04/09 06:15:50;;;;;;;9.15;1.63;;;4.50;99.90;;;;;;5088115;28;20438;-77
2022/04/09 06:18:15;;;;;;;8.80;1.48;;;4.60;99.90;;;;;;5089260;28;20410;-76
2022/04/09 06:20:41;;;;;;;6.80;1.10;;;4.60;99.90;;;;;;5087178;28;20438;-77
2022/04/09 06:23:07;;;;;;;7.30;0.90;;;4.60;99.90;;;;;;5090377;28;20418;-77
2022/04/09 06:25:33;;;;;;;5.85;0.50;;;4.60;99.90;;;;;;5087423;28;20437;-77
2022/04/09 06:27:58;;;;;;;5.45;0.70;;;4.60;99.90;;;;;;5086416;28;20453;-77
2022/04/09 06:30:25;;;;;;;6.00;0.70;;;4.60;99.90;;;;;;5086873;28;20398;-78
2022/04/09 06:32:50;;;;;;;7.53;1.20;;;4.60;99.90;;;;;;5087618;28;20398;-77
2022/04/09 06:35:17;;;;;;;10.00;1.20;;;4.50;99.90;;;;;;5086171;28;20467;-77
2022/04/09 06:37:42;;;;;;;8.50;1.38;;;4.50;99.90;;;;;;5086313;28;20576;-77
2022/04/09 06:40:09;;;;;;;11.17;1.37;;;4.60;99.90;;;;;;5087557;28;20848;-77
2022/04/09 06:42:44;;;;;;;9.00;1.30;;;4.70;99.90;;;;;;5087401;28;20456;-77
2022/04/09 06:45:10;;;;;;;9.10;1.38;;;4.80;99.90;;;;;;5086124;28;20401;-77
2022/04/09 06:47:38;;;;;;;10.70;1.40;;;4.90;99.90;;;;;;5069823;28;20394;-77
2022/04/09 06:50:12;;;;;;;9.55;1.45;;;5.10;99.90;;;;;;5088181;28;20402;-77
2022/04/09 06:52:38;;;;;;;9.95;1.70;;;5.20;99.90;;;;;;5087453;28;20397;-78
2022/04/09 06:55:05;;;;;;;8.27;1.30;;;5.40;99.90;;;;;;5087317;28;20402;-77
2022/04/09 06:57:32;;;;;;;8.40;1.50;;;5.50;99.90;;;;;;5087487;28;20406;-77
2022/04/09 06:59:59;;;;;;;11.02;1.80;;;5.60;99.90;;;;;;5086866;28;20435;-77
2022/04/09 07:02:25;;;;;;;9.48;1.33;;;5.80;99.90;;;;;;5087716;28;20459;-77
2022/04/09 07:04:51;;;;;;;7.13;1.00;;;5.90;99.90;;;;;;5087027;28;20945;-78
2022/04/09 07:07:23;;;;;;;6.47;1.15;;;6.00;99.90;;;;;;5083617;28;20422;-78
2022/04/09 07:09:49;;;;;;;9.07;1.30;;;6.10;99.90;;;;;;5069355;28;21353;-77
2022/04/09 07:12:16;;;;;;;9.57;1.47;;;6.10;99.90;;;;;;5081605;28;20423;-77
2022/04/09 07:14:41;;;;;;;5.57;0.98;;;6.20;99.90;;;;;;5078838;28;20512;-78
2022/04/09 07:17:07;;;;;;;5.87;1.13;;;6.20;99.90;;;;;;5085710;28;20512;-78
2022/04/09 07:19:33;;;;;;;8.50;1.08;;;6.30;99.90;;;;;;5088117;28;20521;-79
2022/04/09 07:22:00;;;;;;;8.82;1.35;;;6.30;99.90;;;;;;5084018;28;20442;-78
2022/04/09 07:24:25;;;;;;;8.15;1.20;;;6.40;99.90;;;;;;5057358;28;20508;-78
2022/04/09 07:26:51;;;;;;;11.35;1.63;;;6.40;99.90;;;;;;5077023;28;20418;-78
2022/04/09 07:29:17;;;;;;;8.27;1.50;;;6.50;99.90;;;;;;5088180;28;20420;-78
2022/04/09 07:31:43;;;;;;;7.90;1.57;;;6.50;99.90;;;;;;5084644;28;20521;-77
2022/04/09 07:34:10;;;;;;;11.15;2.03;;;6.60;99.90;;;;;;5087118;28;20425;-77
2022/04/09 07:36:35;;;;;;;11.48;2.25;;;6.70;99.90;;;;;;5087935;28;20471;-77
2022/04/09 07:39:01;;;;;;;15.68;1.83;;;6.70;99.90;;;;;;5086500;28;20931;-77
2022/04/09 07:41:26;;;;;;;15.90;2.40;;;6.70;99.90;;;;;;5087754;28;20453;-77
2022/04/09 07:43:52;;;;;;;13.68;2.20;;;6.70;99.90;;;;;;5086261;28;20421;-77
2022/04/09 07:46:18;;;;;;;9.32;1.50;;;6.60;99.90;;;;;;5086729;28;20416;-77
2022/04/09 07:48:43;;;;;;;9.43;1.60;;;6.60;99.90;;;;;;5087536;28;20850;-77
2022/04/09 07:51:09;;;;;;;8.95;1.20;;;6.60;99.90;;;;;;5086410;28;20445;-77
2022/04/09 07:53:35;;;;;;;9.20;1.63;;;6.70;99.90;;;;;;5086924;28;20404;-77
2022/04/09 07:56:00;;;;;;;10.40;1.50;;;6.80;99.90;;;;;;5087654;28;20891;-77
2022/04/09 07:58:26;;;;;;;10.30;1.73;;;7.00;99.90;;;;;;5087877;28;20398;-77
2022/04/09 08:00:51;;;;;;;10.07;1.90;;;7.10;99.90;;;;;;5086129;28;20493;-77
2022/04/09 08:03:17;;;;;;;11.68;1.80;;;7.20;99.90;;;;;;5086154;28;20408;-77
2022/04/09 08:05:43;;;;;;;10.03;1.77;;;7.20;99.90;;;;;;5085865;28;20492;-77
2022/04/09 08:08:10;;;;;;;11.30;1.73;;;7.30;99.90;;;;;;5086393;28;20915;-77
2022/04/09 08:10:37;;;;;;;9.63;1.35;;;7.30;99.90;;;;;;5086567;28;20405;-77
2022/04/09 08:13:03;;;;;;;10.55;1.90;;;7.40;99.90;;;;;;5087363;28;20405;-77
2022/04/09 08:15:28;;;;;;;11.77;2.13;;;7.50;99.90;;;;;;5086474;28;20402;-77
2022/04/09 08:17:56;;;;;;;13.20;2.23;;;7.70;99.90;;;;;;5103415;28;21145;-77
2022/04/09 08:20:22;;;;;;;13.38;1.95;;;7.80;99.90;;;;;;5106727;28;20408;-77
2022/04/09 08:22:49;;;;;;;10.93;1.95;;;8.00;99.90;;;;;;5107858;28;20420;-77
2022/04/09 08:25:15;;;;;;;9.85;2.10;;;8.10;99.90;;;;;;5107756;28;20432;-76
2022/04/09 08:27:43;;;;;;;13.63;1.90;;;8.10;99.90;;;;;;5108098;28;20481;-77
2022/04/09 08:30:10;;;;;;;8.05;1.50;;;8.00;99.90;;;;;;5108004;28;20450;-77
2022/04/09 08:32:36;;;;;;;6.22;1.05;;;7.90;99.90;;;;;;5106732;28;20417;-77
2022/04/09 08:35:03;;;;;;;4.95;0.82;;;7.70;99.90;;;;;;5108069;28;20396;-76
2022/04/09 08:37:29;;;;;;;7.82;1.05;;;7.30;99.90;;;;;;5106551;28;20423;-77
2022/04/09 08:39:55;;;;;;;7.03;1.13;;;7.10;99.90;;;;;;5107700;28;20400;-76
2022/04/09 08:42:21;;;;;;;7.35;1.13;;;6.90;99.90;;;;;;5106024;28;20493;-76
2022/04/09 08:44:50;;;;;;;6.40;1.00;;;6.70;99.90;;;;;;5106445;28;20449;-76
2022/04/09 08:47:16;;;;;;;6.65;0.80;;;6.60;99.90;;;;;;5089403;28;20906;-76
2022/04/09 08:49:46;;;;;;;7.30;1.20;;;6.60;99.90;;;;;;5106375;28;20403;-76
2022/04/09 08:52:12;;;;;;;6.20;0.70;;;6.60;99.90;;;;;;5106374;28;20409;-76
2022/04/09 08:54:39;;;;;;;7.80;0.90;;;6.70;99.90;;;;;;5106573;28;20461;-76
2022/04/09 08:57:05;;;;;;;10.02;1.60;;;7.00;99.90;;;;;;5109259;28;20484;-76
2022/04/09 08:59:31;;;;;;;6.63;0.68;;;7.40;99.90;;;;;;5111094;28;20400;-76
2022/04/09 09:01:57;;;;;;;5.47;0.73;;;7.30;99.90;;;;;;5109672;28;20432;-76
2022/04/09 09:04:23;;;;;;;7.57;0.90;;;6.80;99.90;;;;;;5110383;28;20408;-75
2022/04/09 09:06:49;;;;;;;7.82;1.05;;;6.30;99.90;;;;;;5092956;28;20404;-76
2022/04/09 09:09:26;;;;;;;8.17;1.10;;;5.90;99.90;;;;;;5110028;28;20412;-76
2022/04/09 09:11:52;;;;;;;5.68;0.80;;;5.60;99.90;;;;;;5109251;28;20412;-76
2022/04/09 09:14:29;;;;;;;4.97;0.88;;;5.50;99.90;;;;;;5109795;28;20979;-76
2022/04/09 09:17:00;;;;;;;2.30;0.40;;;5.50;99.90;;;;;;5100849;28;20410;-75
2022/04/09 09:19:43;;;;;;;2.85;0.40;;;5.50;99.90;;;;;;5089738;28;20467;-76
2022/04/09 09:22:09;;;;;;;3.25;0.40;;;5.60;99.90;;;;;;5089169;28;20430;-76
2022/04/09 09:24:35;;;;;;;3.72;0.60;;;5.70;99.90;;;;;;5089531;28;20413;-75
2022/04/09 09:27:03;;;;;;;5.78;0.68;;;5.80;99.90;;;;;;5089216;28;20542;-76
2022/04/09 09:29:30;;;;;;;3.85;0.52;;;5.90;99.90;;;;;;5089670;28;20513;-76
2022/04/09 09:31:58;;;;;;;4.82;0.60;;;6.30;99.90;;;;;;5089955;28;20410;-76
2022/04/09 09:34:24;;;;;;;4.97;0.75;;;6.90;99.90;;;;;;5090580;28;20401;-76
2022/04/09 09:36:50;;;;;;;6.32;1.40;;;7.80;99.90;;;;;;5088764;28;20486;-76
2022/04/09 09:39:18;;;;;;;5.70;1.02;;;8.70;99.90;;;;;;5089835;28;20394;-76
2022/04/09 09:41:57;;;;;;;7.78;1.25;;;9.40;99.90;;;;;;5089811;28;20429;-76
2022/04/09 09:44:25;;;;;;;7.22;1.00;;;10.00;99.90;;;;;;5088684;28;20414;-76
2022/04/09 09:46:53;;;;;;;8.52;1.20;;;10.50;99.90;;;;;;5090044;28;20896;-77
2022/04/09 09:49:23;;;;;;;10.10;1.73;;;10.80;99.90;;;;;;5090061;28;20397;-77
2022/04/09 09:52:06;;;;;;;9.38;1.60;;;11.10;99.90;;;;;;5089516;28;20406;-77
2022/04/09 09:54:32;;;;;;;9.77;1.90;;;11.60;99.90;;;;;;5088353;28;20992;-77
2022/04/09 09:57:00;;;;;;;12.70;2.40;;;11.80;99.90;;;;;;5088748;28;20410;-76
2022/04/09 09:59:27;;;;;;;12.33;2.00;;;11.80;99.90;;;;;;5089687;28;20402;-76
2022/04/09 10:01:54;;;;;;;13.10;2.20;;;11.50;99.90;;;;;;5089158;28;20429;-76
2022/04/09 10:04:20;;;;;;;10.43;1.95;;;10.90;99.90;;;;;;5089586;28;20397;-76
2022/04/09 10:06:46;;;;;;;11.65;1.80;;;10.30;99.90;;;;;;5089059;28;20402;-76
2022/04/09 10:09:14;;;;;;;11.32;2.22;;;10.10;99.90;;;;;;5089601;28;20458;-76
2022/04/09 10:11:49;;;;;;;15.15;2.17;;;9.90;99.90;;;;;;5088930;28;20407;-76
2022/04/09 10:14:21;;;;;;;11.93;1.98;;;9.60;99.90;;;;;;5087381;28;20434;-76
2022/04/09 10:16:48;;;;;;;12.60;2.08;;;9.50;99.90;;;;;;5089239;28;20421;-76
2022/04/09 10:19:17;;;;;;;10.13;1.77;;;9.20;99.90;;;;;;5089081;28;20406;-76
2022/04/09 10:21:46;;;;;;;11.02;1.90;;;9.20;99.90;;;;;;5088740;28;20430;-76
2022/04/09 10:24:23;;;;;;;10.38;1.50;;;9.20;99.90;;;;;;5087916;28;20413;-76
2022/04/09 10:26:49;;;;;;;4.25;0.30;;;9.10;99.90;;;;;;5089104;28;20405;-76
2022/04/09 10:29:15;;;;;;;3.93;0.70;;;8.90;99.90;;;;;;5087932;28;20402;-76
2022/04/09 10:31:51;;;;;;;5.95;0.70;;;8.60;99.90;;;;;;5088555;28;20400;-76
2022/04/09 10:34:17;;;;;;;5.15;0.70;;;8.30;99.90;;;;;;5087629;28;20447;-76
2022/04/09 10:36:46;;;;;;;4.72;0.30;;;8.00;99.90;;;;;;5086613;28;20410;-76
2022/04/09 10:39:25;;;;;;;3.25;0.30;;;7.80;99.90;;;;;;5088449;28;20905;-76
2022/04/09 10:41:53;;;;;;;1.98;0.20;;;7.50;99.90;;;;;;5088352;28;20438;-76
2022/04/09 10:44:44;;;;;;;1.98;0.20;;;7.30;99.90;;;;;;5088898;28;20402;-76
2022/04/09 10:47:14;;;;;;;0.87;0.10;;;7.80;99.90;;;;;;5088129;28;20414;-76
2022/04/09 10:49:59;;;;;;;1.35;0.10;;;8.30;99.90;;;;;;5088351;28;21003;-76
2022/04/09 10:52:27;;;;;;;0.90;0.10;;;9.10;99.90;;;;;;5088930;28;20407;-76
2022/04/09 10:55:15;;;;;;;1.88;0.32;;;9.70;99.90;;;;;;5088427;28;20896;-76
2022/04/09 10:57:45;;;;;;;1.67;0.20;;;10.40;99.90;;;;;;5088926;28;20438;-76
2022/04/09 11:00:23;;;;;;;3.55;0.40;;;10.90;99.90;;;;;;5086779;28;20432;-77
2022/04/09 11:03:10;;;;;;;4.32;0.68;;;11.30;99.90;;;;;;5087184;28;20433;-76
2022/04/09 11:05:39;;;;;;;4.35;0.77;;;11.50;99.90;;;;;;5088801;28;20762;-76
2022/04/09 11:08:08;;;;;;;6.95;0.82;;;11.80;99.90;;;;;;5088383;28;20792;-77
2022/04/09 11:10:34;;;;;;;3.53;0.68;;;11.90;99.90;;;;;;5088584;28;20485;-77
2022/04/09 11:13:01;;;;;;;4.00;0.90;;;12.10;99.90;;;;;;5087316;28;20785;-76
2022/04/09 11:15:29;;;;;;;7.82;1.40;;;12.00;99.90;;;;;;5087345;28;20398;-76
2022/04/09 11:18:01;;;;;;;6.03;1.10;;;11.60;99.90;;;;;;5068889;28;20398;-76
2022/04/09 11:20:31;;;;;;;9.10;1.33;;;11.40;99.90;;;;;;5086662;28;20485;-77
2022/04/09 11:22:56;;;;;;;9.45;1.13;;;11.30;99.90;;;;;;5087505;28;20422;-77
2022/04/09 11:25:27;;;;;;;7.50;1.30;;;11.20;99.90;;;;;;5088070;28;20734;-76
2022/04/09 11:28:04;;;;;;;8.65;1.55;;;10.80;99.90;;;;;;5088000;28;20397;-76
2022/04/09 11:30:29;;;;;;;8.80;1.43;;;10.90;99.90;;;;;;5087786;28;20919;-77
2022/04/09 11:32:55;;;;;;;6.93;1.30;;;11.40;99.90;;;;;;5087779;28;20390;-76
2022/04/09 11:35:24;;;;;;;8.40;1.63;;;11.60;99.90;;;;;;5088111;28;20410;-76
2022/04/09 11:37:51;;;;;;;10.00;1.50;;;11.30;99.90;;;;;;5086769;28;20564;-76
2022/04/09 11:40:19;;;;;;;9.90;1.60;;;11.50;99.90;;;;;;5088119;28;20919;-76
2022/04/09 11:42:51;;;;;;;9.25;1.60;;;11.60;99.90;;;;;;5088010;28;20456;-76
2022/04/09 11:45:28;;;;;;;9.38;1.40;;;11.60;99.90;;;;;;5088033;28;20394;-76
2022/04/09 11:47:58;;;;;;;10.55;1.85;;;11.40;99.90;;;;;;5087687;28;20406;-76
2022/04/09 11:50:25;;;;;;;8.55;1.50;;;11.00;99.90;;;;;;5087875;28;20460;-77
2022/04/09 11:52:53;;;;;;;12.40;1.70;;;11.20;99.90;;;;;;5087412;28;20432;-76
2022/04/09 11:55:19;;;;;;;10.05;1.70;;;11.10;99.40;;;;;;5088195;28;20900;-76
2022/04/09 11:57:52;;;;;;;8.57;1.90;;;11.20;99.90;;;;;;5086329;28;20398;-76
2022/04/09 12:00:23;;;;;;;10.02;1.90;;;11.30;99.90;;;;;;5087810;28;20425;-77
2022/04/09 12:02:48;;;;;;;10.80;1.85;;;11.40;99.90;;;;;;5086400;28;20777;-76
2022/04/09 12:05:15;;;;;;;8.43;1.40;;;11.40;99.90;;;;;;5087689;28;20397;-76
2022/04/09 12:07:42;;;;;;;11.15;1.73;;;11.10;99.90;;;;;;5087762;28;20397;-76
2022/04/09 12:10:28;;;;;;;7.35;1.20;;;11.10;99.90;;;;;;5085693;28;20402;-76
2022/04/09 12:13:07;;;;;;;6.75;1.00;;;11.40;99.90;;;;;;5087605;28;20899;-76
2022/04/09 12:15:35;;;;;;;8.13;1.20;;;11.90;99.90;;;;;;5087649;28;20447;-77
2022/04/09 12:18:05;;;;;;;7.85;1.70;;;12.10;99.90;;;;;;5085977;28;20950;-76
2022/04/09 12:20:35;;;;;;;11.07;1.63;;;12.20;99.90;;;;;;5086248;28;20999;-76
2022/04/09 12:23:03;;;;;;;12.93;2.15;;;12.30;99.90;;;;;;5068795;28;20484;-76
2022/04/09 12:25:47;;;;;;;11.88;2.08;;;12.00;99.90;;;;;;5087894;28;20455;-76
2022/04/09 12:28:22;;;;;;;13.07;2.10;;;11.50;99.90;;;;;;5086352;28;20410;-76
2022/04/09 12:30:49;;;;;;;9.83;1.90;;;11.00;99.90;;;;;;5087988;28;20808;-76
2022/04/09 12:33:15;;;;;;;11.05;2.00;;;10.60;99.90;;;;;;5090417;28;20432;-75
2022/04/09 12:35:42;;;;;;;7.15;1.20;;;10.20;99.90;;;;;;5091118;28;20414;-76
2022/04/09 12:38:07;;;;;;;8.73;1.25;;;9.80;99.90;;;;;;5090934;28;20756;-76
2022/04/09 12:40:33;;;;;;;5.97;0.90;;;9.50;99.90;;;;;;5091222;28;20406;-76
2022/04/09 12:43:00;;;;;;;6.35;1.00;;;9.70;99.90;;;;;;5089886;28;20551;-76
2022/04/09 12:45:27;;;;;;;7.20;1.25;;;9.80;99.90;;;;;;5091058;28;20473;-76
2022/04/09 12:48:01;;;;;;;7.82;1.60;;;9.80;99.90;;;;;;5089269;28;20401;-76
2022/04/09 12:50:34;;;;;;;8.48;1.27;;;9.80;99.90;;;;;;5090126;28;20912;-76
2022/04/09 12:53:03;;;;;;;6.25;1.30;;;10.00;99.90;;;;;;5089448;28;20418;-76